sensor_id;sensor_type;location;lat;lon;timestamp;temperature;humidity
4058;DHT22;2044;48.692;9.020;2022-07-17T00:00:19;13.40;99.90
4058;DHT22;2044;48.692;9.020;2022-07-17T00:02:46;13.60;1.00
4058;DHT22;2044;48.692;9.020;2022-07-17T00:05:13;13.70;1.00
4058;DHT22;2044;48.692;9.020;2022-07-17T00:07:40;13.80;44.80
4058;DHT22;2044;48.692;9.020;2022-07-17T00:10:07;13.90;25.60
4058;DHT22;2044;48.692;9.020;2022-07-17T00:12:34;13.80;41.10
4058;DHT22;2044;48.692;9.020;2022-07-17T00:15:03;13.60;99.90
4058;DHT22;2044;48.692;9.020;2022-07-17T00:17:30;13.30;99.90
4058;DHT22;2044;48.692;9.020;2022-07-17T00:19:56;13.10;99.90
4058;DHT22;2044;48.692;9.020;2022-07-17T00:22:23;13.00;99.90
4058;DHT22;2044;48.692;9.020;2022-07-17T00:24:50;12.90;99.90
4058;DHT22;2044;48.692;9.020;2022-07-17T00:27:16;12.80;1.00
4058;DHT22;2044;48.692;9.020;2022-07-17T00:29:43;12.70;99.90
4058;DHT22;2044;48.692;9.020;2022-07-17T00:32:11;12.70;1.00
4058;DHT22;2044;48.692;9.020;2022-07-17T00:34:38;12.60;24.20
4058;DHT22;2044;48.692;9.020;2022-07-17T00:37:04;12.60;99.90
4058;DHT22;2044;48.692;9.020;2022-07-17T00:39:31;12.50;99.90
4058;DHT22;2044;48.692;9.020;2022-07-17T00:41:58;12.40;99.90
4058;DHT22;2044;48.692;9.020;2022-07-17T00:44:26;12.40;99.90
4058;DHT22;2044;48.692;9.020;2022-07-17T00:46:53;12.20;1.00
4058;DHT22;2044;48.692;9.020;2022-07-17T00:49:21;12.20;1.00
4058;DHT22;2044;48.692;9.020;2022-07-17T00:51:47;12.00;1.00
4058;DHT22;2044;48.692;9.020;2022-07-17T00:54:15;12.00;1.00
4058;DHT22;2044;48.692;9.020;2022-07-17T00:56:46;12.00;1.00
4058;DHT22;2044;48.692;9.020;2022-07-17T00:59:14;12.00;1.00
4058;DHT22;2044;48.692;9.020;2022-07-17T01:01:42;12.10;1.00
4058;DHT22;2044;48.692;9.020;2022-07-17T01:04:08;12.10;1.00
4058;DHT22;2044;48.692;9.020;2022-07-17T01:06:36;12.10;1.00
4058;DHT22;2044;48.692;9.020;2022-07-17T01:09:03;12.20;1.00
4058;DHT22;2044;48.692;9.020;2022-07-17T01:11:30;12.30;99.90
4058;DHT22;2044;48.692;9.020;2022-07-17T01:13:57;12.30;99.90
4058;DHT22;2044;48.692;9.020;2022-07-17T01:16:24;12.20;99.90
4058;DHT22;2044;48.692;9.020;2022-07-17T01:18:52;12.10;1.00
4058;DHT22;2044;48.692;9.020;2022-07-17T01:21:20;12.10;1.00
4058;DHT22;2044;48.692;9.020;2022-07-17T01:23:47;11.90;1.00
4058;DHT22;2044;48.692;9.020;2022-07-17T01:26:14;11.70;1.00
4058;DHT22;2044;48.692;9.020;2022-07-17T01:28:41;11.60;13.90
4058;DHT22;2044;48.692;9.020;2022-07-17T01:31:07;11.60;72.10
4058;DHT22;2044;48.692;9.020;2022-07-17T01:33:34;11.50;85.60
4058;DHT22;2044;48.692;9.020;2022-07-17T01:36:01;11.40;99.90
4058;DHT22;2044;48.692;9.020;2022-07-17T01:38:29;11.30;99.90
4058;DHT22;2044;48.692;9.020;2022-07-17T01:40:56;11.30;99.90
4058;DHT22;2044;48.692;9.020;2022-07-17T01:43:22;11.30;99.90
4058;DHT22;2044;48.692;9.020;2022-07-17T01:45:49;11.20;99.90
4058;DHT22;2044;48.692;9.020;2022-07-17T01:48:23;11.10;99.90
4058;DHT22;2044;48.692;9.020;2022-07-17T01:50:50;11.10;99.90
4058;DHT22;2044;48.692;9.020;2022-07-17T01:53:17;11.10;99.90
4058;DHT22;2044;48.692;9.020;2022-07-17T01:55:45;11.00;99.90
4058;DHT22;2044;48.692;9.020;2022-07-17T01:58:12;11.00;99.90
4058;DHT22;2044;48.692;9.020;2022-07-17T02:00:39;11.00;99.90
4058;DHT22;2044;48.692;9.020;2022-07-17T02:03:06;11.00;99.90
4058;DHT22;2044;48.692;9.020;2022-07-17T02:05:33;10.90;99.90
4058;DHT22;2044;48.692;9.020;2022-07-17T02:07:59;10.80;99.90
4058;DHT22;2044;48.692;9.020;2022-07-17T02:10:27;10.70;99.90
4058;DHT22;2044;48.692;9.020;2022-07-17T02:12:55;10.70;99.90
4058;DHT22;2044;48.692;9.020;2022-07-17T02:15:22;10.60;99.90
4058;DHT22;2044;48.692;9.020;2022-07-17T02:17:50;10.50;99.90
4058;DHT22;2044;48.692;9.020;2022-07-17T02:20:17;10.50;99.90
4058;DHT22;2044;48.692;9.020;2022-07-17T02:22:44;10.70;99.90
4058;DHT22;2044;48.692;9.020;2022-07-17T02:25:12;11.00;99.90
4058;DHT22;2044;48.692;9.020;2022-07-17T02:27:40;11.30;99.90
4058;DHT22;2044;48.692;9.020;2022-07-17T02:30:10;11.50;99.90
4058;DHT22;2044;48.692;9.020;2022-07-17T02:32:37;11.90;45.60
4058;DHT22;2044;48.692;9.020;2022-07-17T02:35:06;12.10;1.00
4058;DHT22;2044;48.692;9.020;2022-07-17T02:37:33;12.10;1.00
4058;DHT22;2044;48.692;9.020;2022-07-17T02:40:00;12.00;1.00
4058;DHT22;2044;48.692;9.020;2022-07-17T02:42:28;12.00;1.00
4058;DHT22;2044;48.692;9.020;2022-07-17T02:44:55;11.70;62.90
4058;DHT22;2044;48.692;9.020;2022-07-17T02:47:25;11.60;98.10
4058;DHT22;2044;48.692;9.020;2022-07-17T02:49:52;11.40;99.90
4058;DHT22;2044;48.692;9.020;2022-07-17T02:52:19;11.20;99.90
4058;DHT22;2044;48.692;9.020;2022-07-17T02:54:46;11.00;99.90
4058;DHT22;2044;48.692;9.020;2022-07-17T02:57:13;11.00;99.90
4058;DHT22;2044;48.692;9.020;2022-07-17T02:59:40;10.80;99.90
4058;DHT22;2044;48.692;9.020;2022-07-17T03:02:07;10.70;99.90
4058;DHT22;2044;48.692;9.020;2022-07-17T03:04:35;10.60;99.90
4058;DHT22;2044;48.692;9.020;2022-07-17T03:07:02;10.40;99.90
4058;DHT22;2044;48.692;9.020;2022-07-17T03:09:28;10.30;99.90
4058;DHT22;2044;48.692;9.020;2022-07-17T03:11:55;10.30;99.90
4058;DHT22;2044;48.692;9.020;2022-07-17T03:14:22;10.20;99.90
4058;DHT22;2044;48.692;9.020;2022-07-17T03:16:48;10.30;99.90
4058;DHT22;2044;48.692;9.020;2022-07-17T03:19:15;10.30;99.90
4058;DHT22;2044;48.692;9.020;2022-07-17T03:21:43;10.20;99.90
4058;DHT22;2044;48.692;9.020;2022-07-17T03:24:10;10.20;99.90
4058;DHT22;2044;48.692;9.020;2022-07-17T03:26:37;10.20;99.90
4058;DHT22;2044;48.692;9.020;2022-07-17T03:29:03;10.10;99.90
4058;DHT22;2044;48.692;9.020;2022-07-17T03:31:30;10.20;99.90
4058;DHT22;2044;48.692;9.020;2022-07-17T03:33:57;10.20;99.90
4058;DHT22;2044;48.692;9.020;2022-07-17T03:36:23;10.30;99.90
4058;DHT22;2044;48.692;9.020;2022-07-17T03:38:52;10.30;99.90
4058;DHT22;2044;48.692;9.020;2022-07-17T03:41:19;10.20;99.90
4058;DHT22;2044;48.692;9.020;2022-07-17T03:43:45;10.10;99.90
4058;DHT22;2044;48.692;9.020;2022-07-17T03:46:12;10.00;99.90
4058;DHT22;2044;48.692;9.020;2022-07-17T03:48:39;10.00;99.90
4058;DHT22;2044;48.692;9.020;2022-07-17T03:51:05;10.00;99.90
4058;DHT22;2044;48.692;9.020;2022-07-17T03:53:32;10.00;99.90
4058;DHT22;2044;48.692;9.020;2022-07-17T03:56:00;10.00;99.90
4058;DHT22;2044;48.692;9.020;2022-07-17T03:58:27;10.00;99.90
4058;DHT22;2044;48.692;9.020;2022-07-17T04:00:54;10.00;99.90
4058;DHT22;2044;48.692;9.020;2022-07-17T04:03:21;10.10;99.90
4058;DHT22;2044;48.692;9.020;2022-07-17T04:05:47;10.30;99.90
4058;DHT22;2044;48.692;9.020;2022-07-17T04:08:14;10.40;99.90
4058;DHT22;2044;48.692;9.020;2022-07-17T04:10:41;10.40;99.90
4058;DHT22;2044;48.692;9.020;2022-07-17T04:13:09;10.30;99.90
4058;DHT22;2044;48.692;9.020;2022-07-17T04:15:36;10.40;99.90
4058;DHT22;2044;48.692;9.020;2022-07-17T04:18:18;10.70;99.90
4058;DHT22;2044;48.692;9.020;2022-07-17T04:20:45;11.40;99.90
4058;DHT22;2044;48.692;9.020;2022-07-17T04:23:11;12.40;99.90
4058;DHT22;2044;48.692;9.020;2022-07-17T04:25:38;13.30;99.90
4058;DHT22;2044;48.692;9.020;2022-07-17T04:28:05;14.10;99.90
4058;DHT22;2044;48.692;9.020;2022-07-17T04:30:33;14.70;99.90
4058;DHT22;2044;48.692;9.020;2022-07-17T04:33:00;15.40;99.90
4058;DHT22;2044;48.692;9.020;2022-07-17T04:35:27;16.00;99.90
4058;DHT22;2044;48.692;9.020;2022-07-17T04:37:54;16.50;1.00
4058;DHT22;2044;48.692;9.020;2022-07-17T04:40:20;17.00;99.90
4058;DHT22;2044;48.692;9.020;2022-07-17T04:42:47;17.80;99.90
4058;DHT22;2044;48.692;9.020;2022-07-17T04:45:15;18.40;1.00
4058;DHT22;2044;48.692;9.020;2022-07-17T04:47:43;19.00;1.00
4058;DHT22;2044;48.692;9.020;2022-07-17T04:50:10;19.90;1.00
4058;DHT22;2044;48.692;9.020;2022-07-17T04:52:36;20.60;1.00
4058;DHT22;2044;48.692;9.020;2022-07-17T04:55:04;21.00;99.90
4058;DHT22;2044;48.692;9.020;2022-07-17T04:57:31;21.40;99.90
4058;DHT22;2044;48.692;9.020;2022-07-17T04:59:58;22.10;99.90
4058;DHT22;2044;48.692;9.020;2022-07-17T05:02:24;22.50;99.90
4058;DHT22;2044;48.692;9.020;2022-07-17T05:04:52;23.00;99.90
4058;DHT22;2044;48.692;9.020;2022-07-17T05:07:19;23.60;99.90
4058;DHT22;2044;48.692;9.020;2022-07-17T05:09:46;24.10;99.90
4058;DHT22;2044;48.692;9.020;2022-07-17T05:12:13;24.60;99.90
4058;DHT22;2044;48.692;9.020;2022-07-17T05:14:40;25.20;99.90
4058;DHT22;2044;48.692;9.020;2022-07-17T05:17:06;25.30;99.90
4058;DHT22;2044;48.692;9.020;2022-07-17T05:19:33;25.60;99.90
4058;DHT22;2044;48.692;9.020;2022-07-17T05:22:02;25.60;99.90
4058;DHT22;2044;48.692;9.020;2022-07-17T05:24:29;25.30;99.90
4058;DHT22;2044;48.692;9.020;2022-07-17T05:26:56;24.60;99.90
4058;DHT22;2044;48.692;9.020;2022-07-17T05:29:23;25.20;99.90
4058;DHT22;2044;48.692;9.020;2022-07-17T05:31:49;25.80;99.90
4058;DHT22;2044;48.692;9.020;2022-07-17T05:34:16;25.90;99.90
4058;DHT22;2044;48.692;9.020;2022-07-17T05:36:43;26.70;99.90
4058;DHT22;2044;48.692;9.020;2022-07-17T05:39:11;26.90;99.90
4058;DHT22;2044;48.692;9.020;2022-07-17T05:41:38;27.60;99.90
4058;DHT22;2044;48.692;9.020;2022-07-17T05:44:04;28.30;99.90
4058;DHT22;2044;48.692;9.020;2022-07-17T05:46:31;27.50;99.90
4058;DHT22;2044;48.692;9.020;2022-07-17T05:48:58;27.90;99.90
4058;DHT22;2044;48.692;9.020;2022-07-17T05:51:24;27.80;99.90
4058;DHT22;2044;48.692;9.020;2022-07-17T05:53:51;28.30;99.90
4058;DHT22;2044;48.692;9.020;2022-07-17T05:56:19;28.50;99.90
4058;DHT22;2044;48.692;9.020;2022-07-17T05:58:46;29.30;99.90
4058;DHT22;2044;48.692;9.020;2022-07-17T06:01:13;29.80;99.90
4058;DHT22;2044;48.692;9.020;2022-07-17T06:03:39;30.30;99.90
4058;DHT22;2044;48.692;9.020;2022-07-17T06:06:06;30.40;99.90
4058;DHT22;2044;48.692;9.020;2022-07-17T06:08:33;30.40;99.90
4058;DHT22;2044;48.692;9.020;2022-07-17T06:11:00;29.50;99.90
4058;DHT22;2044;48.692;9.020;2022-07-17T06:13:28;29.10;99.90
4058;DHT22;2044;48.692;9.020;2022-07-17T06:15:54;30.20;99.90
4058;DHT22;2044;48.692;9.020;2022-07-17T06:18:24;30.90;99.90
4058;DHT22;2044;48.692;9.020;2022-07-17T06:20:51;31.10;99.90
4058;DHT22;2044;48.692;9.020;2022-07-17T06:23:18;31.70;99.90
4058;DHT22;2044;48.692;9.020;2022-07-17T06:25:44;32.60;99.90
4058;DHT22;2044;48.692;9.020;2022-07-17T06:28:11;32.60;99.90
4058;DHT22;2044;48.692;9.020;2022-07-17T06:30:39;31.50;99.90
4058;DHT22;2044;48.692;9.020;2022-07-17T06:33:06;30.70;99.90
4058;DHT22;2044;48.692;9.020;2022-07-17T06:35:33;31.30;99.90
4058;DHT22;2044;48.692;9.020;2022-07-17T06:38:01;31.70;99.90
4058;DHT22;2044;48.692;9.020;2022-07-17T06:40:28;32.60;99.90
4058;DHT22;2044;48.692;9.020;2022-07-17T06:42:54;33.10;99.90
4058;DHT22;2044;48.692;9.020;2022-07-17T06:45:21;32.40;99.90
4058;DHT22;2044;48.692;9.020;2022-07-17T06:47:49;32.20;99.90
4058;DHT22;2044;48.692;9.020;2022-07-17T06:50:16;32.50;99.90
4058;DHT22;2044;48.692;9.020;2022-07-17T06:52:43;32.80;99.90
4058;DHT22;2044;48.692;9.020;2022-07-17T06:55:09;32.50;99.30
4058;DHT22;2044;48.692;9.020;2022-07-17T06:57:36;33.50;99.90
4058;DHT22;2044;48.692;9.020;2022-07-17T07:00:04;34.80;99.90
4058;DHT22;2044;48.692;9.020;2022-07-17T07:02:30;35.70;98.60
4058;DHT22;2044;48.692;9.020;2022-07-17T07:04:58;35.90;96.20
4058;DHT22;2044;48.692;9.020;2022-07-17T07:07:25;33.20;91.00
4058;DHT22;2044;48.692;9.020;2022-07-17T07:09:52;33.30;93.60
4058;DHT22;2044;48.692;9.020;2022-07-17T07:12:19;34.80;94.10
4058;DHT22;2044;48.692;9.020;2022-07-17T07:14:45;35.60;93.20
4058;DHT22;2044;48.692;9.020;2022-07-17T07:17:12;35.40;91.10
4058;DHT22;2044;48.692;9.020;2022-07-17T07:19:39;35.70;91.20
4058;DHT22;2044;48.692;9.020;2022-07-17T07:22:07;34.50;88.60
4058;DHT22;2044;48.692;9.020;2022-07-17T07:24:34;35.30;90.30
4058;DHT22;2044;48.692;9.020;2022-07-17T07:27:00;34.90;83.80
4058;DHT22;2044;48.692;9.020;2022-07-17T07:29:27;34.20;83.30
4058;DHT22;2044;48.692;9.020;2022-07-17T07:31:54;34.80;83.00
4058;DHT22;2044;48.692;9.020;2022-07-17T07:34:21;34.40;81.30
4058;DHT22;2044;48.692;9.020;2022-07-17T07:36:48;35.00;80.50
4058;DHT22;2044;48.692;9.020;2022-07-17T07:39:16;34.20;77.00
4058;DHT22;2044;48.692;9.020;2022-07-17T07:41:42;33.80;77.50
4058;DHT22;2044;48.692;9.020;2022-07-17T07:44:09;33.90;75.80
4058;DHT22;2044;48.692;9.020;2022-07-17T07:46:36;34.10;75.20
4058;DHT22;2044;48.692;9.020;2022-07-17T07:49:02;33.40;73.50
4058;DHT22;2044;48.692;9.020;2022-07-17T07:51:29;34.00;73.50
4058;DHT22;2044;48.692;9.020;2022-07-17T07:53:56;33.50;70.60
4058;DHT22;2044;48.692;9.020;2022-07-17T07:56:24;33.40;68.70
4058;DHT22;2044;48.692;9.020;2022-07-17T07:58:51;33.40;69.20
4058;DHT22;2044;48.692;9.020;2022-07-17T08:01:17;33.70;70.00
4058;DHT22;2044;48.692;9.020;2022-07-17T08:03:44;34.30;70.10
4058;DHT22;2044;48.692;9.020;2022-07-17T08:06:11;35.50;74.90
4058;DHT22;2044;48.692;9.020;2022-07-17T08:08:40;36.10;72.20
4058;DHT22;2044;48.692;9.020;2022-07-17T08:11:06;36.90;74.60
4058;DHT22;2044;48.692;9.020;2022-07-17T08:13:34;36.60;70.90
4058;DHT22;2044;48.692;9.020;2022-07-17T08:16:01;36.10;67.20
4058;DHT22;2044;48.692;9.020;2022-07-17T08:18:28;35.60;64.90
4058;DHT22;2044;48.692;9.020;2022-07-17T08:20:55;36.30;66.10
4058;DHT22;2044;48.692;9.020;2022-07-17T08:23:21;36.90;66.00
4058;DHT22;2044;48.692;9.020;2022-07-17T08:25:48;35.60;61.00
4058;DHT22;2044;48.692;9.020;2022-07-17T08:28:15;33.80;55.90
4058;DHT22;2044;48.692;9.020;2022-07-17T08:30:49;33.70;57.50
4058;DHT22;2044;48.692;9.020;2022-07-17T08:33:16;32.40;53.50
4058;DHT22;2044;48.692;9.020;2022-07-17T08:35:43;31.30;52.10
4058;DHT22;2044;48.692;9.020;2022-07-17T08:38:10;30.70;52.60
4058;DHT22;2044;48.692;9.020;2022-07-17T08:40:43;30.30;53.30
4058;DHT22;2044;48.692;9.020;2022-07-17T08:43:13;29.50;55.20
4058;DHT22;2044;48.692;9.020;2022-07-17T08:45:51;31.00;60.00
4058;DHT22;2044;48.692;9.020;2022-07-17T08:48:18;32.60;60.30
4058;DHT22;2044;48.692;9.020;2022-07-17T08:50:46;33.10;60.50
4058;DHT22;2044;48.692;9.020;2022-07-17T08:53:13;33.50;60.30
4058;DHT22;2044;48.692;9.020;2022-07-17T08:55:40;32.70;56.50
4058;DHT22;2044;48.692;9.020;2022-07-17T08:58:07;31.80;55.70
4058;DHT22;2044;48.692;9.020;2022-07-17T09:00:33;32.10;58.20
4058;DHT22;2044;48.692;9.020;2022-07-17T09:03:03;31.70;56.40
4058;DHT22;2044;48.692;9.020;2022-07-17T09:05:36;31.40;56.80
4058;DHT22;2044;48.692;9.020;2022-07-17T09:08:05;31.90;57.20
4058;DHT22;2044;48.692;9.020;2022-07-17T09:10:36;32.60;58.60
4058;DHT22;2044;48.692;9.020;2022-07-17T09:13:15;33.30;58.20
4058;DHT22;2044;48.692;9.020;2022-07-17T09:15:43;32.30;54.20
4058;DHT22;2044;48.692;9.020;2022-07-17T09:18:12;31.30;51.40
4058;DHT22;2044;48.692;9.020;2022-07-17T09:20:49;31.20;52.70
4058;DHT22;2044;48.692;9.020;2022-07-17T09:23:17;31.30;52.50
4058;DHT22;2044;48.692;9.020;2022-07-17T09:25:48;30.20;50.40
4058;DHT22;2044;48.692;9.020;2022-07-17T09:28:16;31.00;51.90
4058;DHT22;2044;48.692;9.020;2022-07-17T09:30:44;31.30;51.70
4058;DHT22;2044;48.692;9.020;2022-07-17T09:33:16;31.30;50.10
4058;DHT22;2044;48.692;9.020;2022-07-17T09:35:47;31.80;52.10
4058;DHT22;2044;48.692;9.020;2022-07-17T09:38:25;30.70;49.60
4058;DHT22;2044;48.692;9.020;2022-07-17T09:41:04;31.60;51.10
4058;DHT22;2044;48.692;9.020;2022-07-17T09:44:03;30.30;47.70
4058;DHT22;2044;48.692;9.020;2022-07-17T09:46:32;29.50;47.30
4058;DHT22;2044;48.692;9.020;2022-07-17T09:49:16;29.10;46.10
4058;DHT22;2044;48.692;9.020;2022-07-17T09:51:52;29.10;46.30
4058;DHT22;2044;48.692;9.020;2022-07-17T09:54:21;28.70;43.60
4058;DHT22;2044;48.692;9.020;2022-07-17T09:56:49;28.40;46.30
4058;DHT22;2044;48.692;9.020;2022-07-17T09:59:26;28.50;48.20
4058;DHT22;2044;48.692;9.020;2022-07-17T10:01:59;28.40;46.40
4058;DHT22;2044;48.692;9.020;2022-07-17T10:04:27;29.40;47.10
4058;DHT22;2044;48.692;9.020;2022-07-17T10:06:54;29.30;45.00
4058;DHT22;2044;48.692;9.020;2022-07-17T10:09:21;30.10;43.40
4058;DHT22;2044;48.692;9.020;2022-07-17T10:11:49;31.00;44.20
4058;DHT22;2044;48.692;9.020;2022-07-17T10:14:17;31.60;43.20
4058;DHT22;2044;48.692;9.020;2022-07-17T10:16:45;32.10;45.20
4058;DHT22;2044;48.692;9.020;2022-07-17T10:19:17;32.20;45.00
4058;DHT22;2044;48.692;9.020;2022-07-17T10:21:54;31.70;44.70
4058;DHT22;2044;48.692;9.020;2022-07-17T10:24:22;31.50;45.70
4058;DHT22;2044;48.692;9.020;2022-07-17T10:26:51;30.20;41.70
4058;DHT22;2044;48.692;9.020;2022-07-17T10:29:32;28.20;40.00
4058;DHT22;2044;48.692;9.020;2022-07-17T10:32:01;28.00;43.50
4058;DHT22;2044;48.692;9.020;2022-07-17T10:34:39;27.70;41.90
4058;DHT22;2044;48.692;9.020;2022-07-17T10:37:20;28.40;42.30
4058;DHT22;2044;48.692;9.020;2022-07-17T10:40:10;29.00;42.10
4058;DHT22;2044;48.692;9.020;2022-07-17T10:42:42;30.40;42.40
4058;DHT22;2044;48.692;9.020;2022-07-17T10:45:11;31.00;42.80
4058;DHT22;2044;48.692;9.020;2022-07-17T10:47:47;31.40;42.60
4058;DHT22;2044;48.692;9.020;2022-07-17T10:50:15;31.30;41.90
4058;DHT22;2044;48.692;9.020;2022-07-17T10:52:44;31.20;39.00
4058;DHT22;2044;48.692;9.020;2022-07-17T10:55:21;31.60;40.50
4058;DHT22;2044;48.692;9.020;2022-07-17T10:57:48;31.70;37.30
4058;DHT22;2044;48.692;9.020;2022-07-17T11:00:17;31.80;36.60
4058;DHT22;2044;48.692;9.020;2022-07-17T11:02:44;31.90;39.10
4058;DHT22;2044;48.692;9.020;2022-07-17T11:05:12;32.30;39.40
4058;DHT22;2044;48.692;9.020;2022-07-17T11:07:55;32.10;38.90
4058;DHT22;2044;48.692;9.020;2022-07-17T11:10:25;32.00;37.50
4058;DHT22;2044;48.692;9.020;2022-07-17T11:13:06;31.30;36.80
4058;DHT22;2044;48.692;9.020;2022-07-17T11:15:38;30.90;35.40
4058;DHT22;2044;48.692;9.020;2022-07-17T11:18:10;30.70;36.10
4058;DHT22;2044;48.692;9.020;2022-07-17T11:20:46;31.30;37.90
4058;DHT22;2044;48.692;9.020;2022-07-17T11:23:14;32.40;39.30
4058;DHT22;2044;48.692;9.020;2022-07-17T11:25:51;32.90;36.20
4058;DHT22;2044;48.692;9.020;2022-07-17T11:28:30;33.20;34.20
4058;DHT22;2044;48.692;9.020;2022-07-17T11:30:57;33.30;35.90
4058;DHT22;2044;48.692;9.020;2022-07-17T11:33:24;31.70;31.80
4058;DHT22;2044;48.692;9.020;2022-07-17T11:35:51;30.30;30.50
4058;DHT22;2044;48.692;9.020;2022-07-17T11:38:25;29.70;29.70
4058;DHT22;2044;48.692;9.020;2022-07-17T11:40:52;30.40;30.30
4058;DHT22;2044;48.692;9.020;2022-07-17T11:43:19;31.20;31.90
4058;DHT22;2044;48.692;9.020;2022-07-17T11:45:46;32.60;35.60
4058;DHT22;2044;48.692;9.020;2022-07-17T11:48:14;33.30;33.70
4058;DHT22;2044;48.692;9.020;2022-07-17T11:50:41;33.50;33.50
4058;DHT22;2044;48.692;9.020;2022-07-17T11:53:18;33.00;33.10
4058;DHT22;2044;48.692;9.020;2022-07-17T11:55:46;31.70;29.30
4058;DHT22;2044;48.692;9.020;2022-07-17T11:58:13;30.50;28.10
4058;DHT22;2044;48.692;9.020;2022-07-17T12:00:39;29.80;27.10
4058;DHT22;2044;48.692;9.020;2022-07-17T12:03:06;30.30;28.80
4058;DHT22;2044;48.692;9.020;2022-07-17T12:05:34;30.90;28.50
4058;DHT22;2044;48.692;9.020;2022-07-17T12:08:02;31.00;27.90
4058;DHT22;2044;48.692;9.020;2022-07-17T12:10:30;31.20;28.20
4058;DHT22;2044;48.692;9.020;2022-07-17T12:13:02;31.00;26.70
4058;DHT22;2044;48.692;9.020;2022-07-17T12:15:39;30.90;26.60
4058;DHT22;2044;48.692;9.020;2022-07-17T12:18:18;30.50;25.30
4058;DHT22;2044;48.692;9.020;2022-07-17T12:20:47;31.20;27.40
4058;DHT22;2044;48.692;9.020;2022-07-17T12:23:28;31.40;26.30
4058;DHT22;2044;48.692;9.020;2022-07-17T12:26:03;31.50;26.30
4058;DHT22;2044;48.692;9.020;2022-07-17T12:28:32;31.30;26.40
4058;DHT22;2044;48.692;9.020;2022-07-17T12:30:58;30.00;25.40
4058;DHT22;2044;48.692;9.020;2022-07-17T12:33:25;29.30;23.00
4058;DHT22;2044;48.692;9.020;2022-07-17T12:35:52;30.40;26.50
4058;DHT22;2044;48.692;9.020;2022-07-17T12:38:19;31.50;27.80
4058;DHT22;2044;48.692;9.020;2022-07-17T12:40:45;32.20;28.20
4058;DHT22;2044;48.692;9.020;2022-07-17T12:43:12;32.80;29.70
4058;DHT22;2044;48.692;9.020;2022-07-17T12:45:41;32.80;28.90
4058;DHT22;2044;48.692;9.020;2022-07-17T12:48:08;32.70;29.70
4058;DHT22;2044;48.692;9.020;2022-07-17T12:50:35;33.40;30.00
4058;DHT22;2044;48.692;9.020;2022-07-17T12:53:01;33.70;30.50
4058;DHT22;2044;48.692;9.020;2022-07-17T12:55:28;33.30;27.20
4058;DHT22;2044;48.692;9.020;2022-07-17T12:57:55;33.60;27.80
4058;DHT22;2044;48.692;9.020;2022-07-17T13:00:22;33.90;28.30
4058;DHT22;2044;48.692;9.020;2022-07-17T13:02:50;34.00;26.50
4058;DHT22;2044;48.692;9.020;2022-07-17T13:05:17;34.00;26.50
4058;DHT22;2044;48.692;9.020;2022-07-17T13:07:43;33.60;26.10
4058;DHT22;2044;48.692;9.020;2022-07-17T13:10:10;34.10;26.20
4058;DHT22;2044;48.692;9.020;2022-07-17T13:12:37;33.80;25.70
4058;DHT22;2044;48.692;9.020;2022-07-17T13:15:05;33.50;24.00
4058;DHT22;2044;48.692;9.020;2022-07-17T13:17:31;32.20;20.10
4058;DHT22;2044;48.692;9.020;2022-07-17T13:19:59;31.80;20.30
4058;DHT22;2044;48.692;9.020;2022-07-17T13:22:26;32.50;22.70
4058;DHT22;2044;48.692;9.020;2022-07-17T13:24:53;33.70;24.80
4058;DHT22;2044;48.692;9.020;2022-07-17T13:27:20;34.10;25.10
4058;DHT22;2044;48.692;9.020;2022-07-17T13:29:47;34.30;26.00
4058;DHT22;2044;48.692;9.020;2022-07-17T13:32:13;35.30;26.20
4058;DHT22;2044;48.692;9.020;2022-07-17T13:34:40;35.30;25.60
4058;DHT22;2044;48.692;9.020;2022-07-17T13:37:08;35.80;25.40
4058;DHT22;2044;48.692;9.020;2022-07-17T13:39:35;35.90;24.80
4058;DHT22;2044;48.692;9.020;2022-07-17T13:42:03;35.50;24.10
4058;DHT22;2044;48.692;9.020;2022-07-17T13:44:30;35.10;21.90
4058;DHT22;2044;48.692;9.020;2022-07-17T13:46:56;33.50;18.40
4058;DHT22;2044;48.692;9.020;2022-07-17T13:49:24;33.90;20.90
4058;DHT22;2044;48.692;9.020;2022-07-17T13:51:51;34.10;20.80
4058;DHT22;2044;48.692;9.020;2022-07-17T13:54:19;33.50;19.70
4058;DHT22;2044;48.692;9.020;2022-07-17T13:56:46;33.70;21.10
4058;DHT22;2044;48.692;9.020;2022-07-17T13:59:12;34.10;21.50
4058;DHT22;2044;48.692;9.020;2022-07-17T14:01:39;34.00;21.70
4058;DHT22;2044;48.692;9.020;2022-07-17T14:04:06;34.20;21.40
4058;DHT22;2044;48.692;9.020;2022-07-17T14:06:33;33.80;21.10
4058;DHT22;2044;48.692;9.020;2022-07-17T14:08:59;32.90;19.00
4058;DHT22;2044;48.692;9.020;2022-07-17T14:11:27;33.10;19.80
4058;DHT22;2044;48.692;9.020;2022-07-17T14:13:54;32.60;18.70
4058;DHT22;2044;48.692;9.020;2022-07-17T14:16:21;32.80;19.60
4058;DHT22;2044;48.692;9.020;2022-07-17T14:18:47;33.20;20.40
4058;DHT22;2044;48.692;9.020;2022-07-17T14:21:27;33.80;37.30
4058;DHT22;2044;48.692;9.020;2022-07-17T14:23:54;33.70;21.00
4058;DHT22;2044;48.692;9.020;2022-07-17T14:26:21;33.70;20.60
4058;DHT22;2044;48.692;9.020;2022-07-17T14:28:49;33.30;19.60
4058;DHT22;2044;48.692;9.020;2022-07-17T14:31:16;33.50;19.50
4058;DHT22;2044;48.692;9.020;2022-07-17T14:33:43;33.20;18.40
4058;DHT22;2044;48.692;9.020;2022-07-17T14:36:10;31.90;16.00
4058;DHT22;2044;48.692;9.020;2022-07-17T14:38:38;31.80;16.60
4058;DHT22;2044;48.692;9.020;2022-07-17T14:41:05;32.20;17.00
4058;DHT22;2044;48.692;9.020;2022-07-17T14:43:33;32.40;19.00
4058;DHT22;2044;48.692;9.020;2022-07-17T14:46:01;32.40;18.80
4058;DHT22;2044;48.692;9.020;2022-07-17T14:48:28;32.60;19.40
4058;DHT22;2044;48.692;9.020;2022-07-17T14:50:55;32.70;20.00
4058;DHT22;2044;48.692;9.020;2022-07-17T14:53:22;32.30;18.60
4058;DHT22;2044;48.692;9.020;2022-07-17T14:55:48;32.20;18.40
4058;DHT22;2044;48.692;9.020;2022-07-17T14:58:15;31.80;17.30
4058;DHT22;2044;48.692;9.020;2022-07-17T15:00:42;32.20;18.40
4058;DHT22;2044;48.692;9.020;2022-07-17T15:03:10;32.40;19.20
4058;DHT22;2044;48.692;9.020;2022-07-17T15:05:37;32.80;19.00
4058;DHT22;2044;48.692;9.020;2022-07-17T15:08:04;33.10;20.60
4058;DHT22;2044;48.692;9.020;2022-07-17T15:10:31;33.30;20.60
4058;DHT22;2044;48.692;9.020;2022-07-17T15:12:58;33.00;19.30
4058;DHT22;2044;48.692;9.020;2022-07-17T15:15:25;32.50;18.30
4058;DHT22;2044;48.692;9.020;2022-07-17T15:17:52;32.20;18.40
4058;DHT22;2044;48.692;9.020;2022-07-17T15:20:20;32.20;17.30
4058;DHT22;2044;48.692;9.020;2022-07-17T15:22:47;32.20;17.30
4058;DHT22;2044;48.692;9.020;2022-07-17T15:25:14;32.50;17.90
4058;DHT22;2044;48.692;9.020;2022-07-17T15:27:40;32.70;18.00
4058;DHT22;2044;48.692;9.020;2022-07-17T15:30:08;32.70;17.90
4058;DHT22;2044;48.692;9.020;2022-07-17T15:32:35;32.50;17.90
4058;DHT22;2044;48.692;9.020;2022-07-17T15:35:03;32.40;17.20
4058;DHT22;2044;48.692;9.020;2022-07-17T15:37:32;32.40;16.80
4058;DHT22;2044;48.692;9.020;2022-07-17T15:39:59;31.70;15.60
4058;DHT22;2044;48.692;9.020;2022-07-17T15:42:26;31.40;14.60
4058;DHT22;2044;48.692;9.020;2022-07-17T15:44:52;31.30;15.90
4058;DHT22;2044;48.692;9.020;2022-07-17T15:47:19;31.20;15.90
4058;DHT22;2044;48.692;9.020;2022-07-17T15:49:46;31.00;14.40
4058;DHT22;2044;48.692;9.020;2022-07-17T15:52:13;31.00;15.40
4058;DHT22;2044;48.692;9.020;2022-07-17T15:54:41;31.30;15.20
4058;DHT22;2044;48.692;9.020;2022-07-17T15:57:07;31.30;16.40
4058;DHT22;2044;48.692;9.020;2022-07-17T15:59:34;31.70;17.50
4058;DHT22;2044;48.692;9.020;2022-07-17T16:02:02;31.90;17.40
4058;DHT22;2044;48.692;9.020;2022-07-17T16:04:29;32.10;17.90
4058;DHT22;2044;48.692;9.020;2022-07-17T16:06:56;32.10;17.10